KVYS/VYS METAR and TAF weather

Enter ICAO airport designator
Station Type Date Time Source
KVYS METAR 2021/04/14 20:15 UTC NOAA

KVYS 142015Z AUTO 28014G22KT 10SM 10/00 A3009 RMK AO2 T00980003


Station Type Date Time Source
KVYS Decoded METAR 2021/04/14 20:15 UTC NOAA

Peru, Illinois Valley Regional-Walter A Duncan Field Airport, IL, United States (KVYS) 41-21-07N 089-09-11W
Apr 14, 2021 - 04:15 PM EDT / 2021.04.14 2015 UTC
Wind: from the W (280 degrees) at 16 MPH (14 KT) gusting to 25 MPH (22 KT):0
Visibility: 10 mile(s):0
Temperature: 49.6 F (9.8 C)
Dew Point: 32.5 F (0.3 C)
Relative Humidity: 51%
Pressure (altimeter): 30.09 in. Hg (1018 hPa)
ob: KVYS 142015Z AUTO 28014G22KT 10SM 10/00 A3009 RMK AO2 T00980003
cycle: 20

Station Type Date Time Source
KVYS TAF UTC NOAA

Error!

Example: see airport list